Airfield :
LOGIN :

Register | Disclaimer

   EN    FR    IT 

 










Legend :    VFR   Marginal VFR   IFR   Intensive IFR   Very Intensive IFR
Visi :
Ceiling :
>= 8 km
>= 3000ft
5 to 8 km
1000 to 3000 ft
1500m to 5 km
500 to 1000 ft
800 to 1500m
200 to 500 ft
< 800m
< 200 ft
Symbols :   Thunderstorms  Fog  Heavy snow  Heavy precipitations  Wind > 20 kt
SIGMETs :     Misc.  Thunderstorms  Icing  Turbulence  Mountain Waves  Volcanic Ashes







- Airport Elevation : 100 ft


EBDT - Schaffen

CURRENT METAR :
  • 190825Z 04013KT 9999 SCT015 SCT022 BKN055 05/02 Q1020 WHT BLU TEMPO WHT

EXPIRED METARs :
  • 190818Z 04011KT 9999 SCT015 BKN055 05/02 Q1020 WHT BLU TEMPO WHT
  • 190755Z 03009KT 9999 FEW016 BKN050 04/02 Q1020 BLU BLU TEMPO WHT
  • 190725Z 03011KT 9999 FEW025 BKN050 04/02 Q1021 BLU BLU TEMPO WHT
  • 190722Z 03011KT 9999 FEW025 BKN050 04/02 Q1021 BLU BLU TEMPO WHT
  • 190703Z 03011KT 9999 SCT024 BKN050 04/02 Q1021 WHT WHT
  • 190625Z 03011KT 9999 FEW013 BKN048 04/02 Q1021 BLU BLU BECMG WHT
  • 190555Z 03011KT 7000 FEW009 BKN048 03/02 Q1021 WHT WHT TEMPO GRN

TAF TAF EBDT
Valid from the 19 at 07:00 until the 19 at 16:00 UTC


190541Z 1907/1916 05013G25KT 9999 FEW013
TEMPO 1907/1908 05014G26KT SCT013
BECMG 1907/1908 BKN016
PROB30
TEMPO 1907/1909 05015G30KT
PROB40
TEMPO 1911/1916 06016G32KT 8000 -SHRA SCT019
No reported NOTAMs for that airfield.



MET'MAP, your aeronautical weather chart ! - Copyright ORBIFLY December 2007 - Disclaimer

ORBIFLY MET'MAP TEAM :

Programming & Development : Alexandra Zaïnal
Concept & Development : Baudouin d'Aumeries
Co-Development & Prog : Marc-Olivier Méhu
Technical & hardware support : Manuel Goepfert

Contact : metmap@orbifly.com




SOURCES & CREDITS :

   NOAA